sensor_id;sensor_type;location;lat;lon;timestamp;P1;durP1;ratioP1;P2;durP2;ratioP2
27539;SDS011;15906;52.046;4.724;2023-06-14T00:00:47;8.60;;;4.20;;
27539;SDS011;15906;52.046;4.724;2023-06-14T00:03:13;8.43;;;3.78;;
27539;SDS011;15906;52.046;4.724;2023-06-14T00:05:42;6.20;;;4.28;;
27539;SDS011;15906;52.046;4.724;2023-06-14T00:08:09;5.90;;;3.65;;
27539;SDS011;15906;52.046;4.724;2023-06-14T00:10:38;11.43;;;4.50;;
27539;SDS011;15906;52.046;4.724;2023-06-14T00:13:06;7.85;;;4.20;;
27539;SDS011;15906;52.046;4.724;2023-06-14T00:15:34;7.40;;;4.35;;
27539;SDS011;15906;52.046;4.724;2023-06-14T00:18:01;8.15;;;4.70;;
27539;SDS011;15906;52.046;4.724;2023-06-14T00:20:27;5.90;;;4.78;;
27539;SDS011;15906;52.046;4.724;2023-06-14T00:22:53;6.05;;;4.10;;
27539;SDS011;15906;52.046;4.724;2023-06-14T00:25:23;6.90;;;4.10;;
27539;SDS011;15906;52.046;4.724;2023-06-14T00:27:52;5.53;;;3.88;;
27539;SDS011;15906;52.046;4.724;2023-06-14T00:30:18;10.25;;;4.78;;
27539;SDS011;15906;52.046;4.724;2023-06-14T00:32:44;9.50;;;4.22;;
27539;SDS011;15906;52.046;4.724;2023-06-14T00:35:10;6.10;;;4.57;;
27539;SDS011;15906;52.046;4.724;2023-06-14T00:37:36;8.88;;;4.28;;
27539;SDS011;15906;52.046;4.724;2023-06-14T00:40:02;7.18;;;4.97;;
27539;SDS011;15906;52.046;4.724;2023-06-14T00:42:29;7.97;;;4.32;;
27539;SDS011;15906;52.046;4.724;2023-06-14T00:44:55;10.02;;;4.60;;
27539;SDS011;15906;52.046;4.724;2023-06-14T00:47:21;7.07;;;4.60;;
27539;SDS011;15906;52.046;4.724;2023-06-14T00:49:46;9.32;;;4.43;;
27539;SDS011;15906;52.046;4.724;2023-06-14T00:52:13;13.18;;;4.88;;
27539;SDS011;15906;52.046;4.724;2023-06-14T00:54:40;7.07;;;4.05;;
27539;SDS011;15906;52.046;4.724;2023-06-14T00:57:09;9.43;;;5.10;;
27539;SDS011;15906;52.046;4.724;2023-06-14T00:59:45;5.82;;;4.20;;
27539;SDS011;15906;52.046;4.724;2023-06-14T01:02:12;9.77;;;4.63;;
27539;SDS011;15906;52.046;4.724;2023-06-14T01:04:39;8.73;;;4.45;;
27539;SDS011;15906;52.046;4.724;2023-06-14T01:15:07;7.60;;;4.95;;
27539;SDS011;15906;52.046;4.724;2023-06-14T01:17:34;5.13;;;4.03;;
27539;SDS011;15906;52.046;4.724;2023-06-14T01:20:01;7.82;;;4.22;;
27539;SDS011;15906;52.046;4.724;2023-06-14T01:22:28;7.30;;;3.97;;
27539;SDS011;15906;52.046;4.724;2023-06-14T01:24:54;6.82;;;4.50;;
27539;SDS011;15906;52.046;4.724;2023-06-14T01:27:23;7.43;;;4.53;;
27539;SDS011;15906;52.046;4.724;2023-06-14T01:29:53;7.07;;;4.15;;
27539;SDS011;15906;52.046;4.724;2023-06-14T01:32:22;5.45;;;3.70;;
27539;SDS011;15906;52.046;4.724;2023-06-14T01:34:49;8.38;;;4.20;;
27539;SDS011;15906;52.046;4.724;2023-06-14T01:37:15;8.43;;;4.07;;
27539;SDS011;15906;52.046;4.724;2023-06-14T01:39:42;5.78;;;3.90;;
27539;SDS011;15906;52.046;4.724;2023-06-14T01:42:08;6.32;;;3.85;;
27539;SDS011;15906;52.046;4.724;2023-06-14T01:44:35;8.93;;;4.13;;
27539;SDS011;15906;52.046;4.724;2023-06-14T01:47:02;5.53;;;4.10;;
27539;SDS011;15906;52.046;4.724;2023-06-14T01:49:28;8.13;;;3.80;;
27539;SDS011;15906;52.046;4.724;2023-06-14T01:51:53;8.40;;;4.07;;
27539;SDS011;15906;52.046;4.724;2023-06-14T01:54:19;7.35;;;4.47;;
27539;SDS011;15906;52.046;4.724;2023-06-14T01:56:44;7.95;;;3.97;;
27539;SDS011;15906;52.046;4.724;2023-06-14T01:59:10;6.43;;;3.60;;
27539;SDS011;15906;52.046;4.724;2023-06-14T02:01:35;5.22;;;3.85;;
27539;SDS011;15906;52.046;4.724;2023-06-14T02:04:01;11.93;;;4.85;;
27539;SDS011;15906;52.046;4.724;2023-06-14T02:06:27;9.90;;;4.18;;
27539;SDS011;15906;52.046;4.724;2023-06-14T02:08:53;7.60;;;3.97;;
27539;SDS011;15906;52.046;4.724;2023-06-14T02:11:18;6.45;;;3.83;;
27539;SDS011;15906;52.046;4.724;2023-06-14T02:13:44;8.05;;;4.38;;
27539;SDS011;15906;52.046;4.724;2023-06-14T02:16:10;6.75;;;3.47;;
27539;SDS011;15906;52.046;4.724;2023-06-14T02:18:36;12.95;;;4.30;;
27539;SDS011;15906;52.046;4.724;2023-06-14T02:21:01;7.15;;;3.70;;
27539;SDS011;15906;52.046;4.724;2023-06-14T02:23:27;8.07;;;4.03;;
27539;SDS011;15906;52.046;4.724;2023-06-14T02:25:52;9.07;;;3.60;;
27539;SDS011;15906;52.046;4.724;2023-06-14T02:28:18;9.10;;;3.80;;
27539;SDS011;15906;52.046;4.724;2023-06-14T02:30:44;7.07;;;3.60;;
27539;SDS011;15906;52.046;4.724;2023-06-14T02:33:09;8.38;;;3.47;;
27539;SDS011;15906;52.046;4.724;2023-06-14T02:35:37;6.25;;;4.18;;
27539;SDS011;15906;52.046;4.724;2023-06-14T02:38:03;8.85;;;3.88;;
27539;SDS011;15906;52.046;4.724;2023-06-14T02:40:29;6.90;;;4.13;;
27539;SDS011;15906;52.046;4.724;2023-06-14T02:42:54;8.07;;;3.42;;
27539;SDS011;15906;52.046;4.724;2023-06-14T02:45:20;7.93;;;4.15;;
27539;SDS011;15906;52.046;4.724;2023-06-14T02:47:46;8.50;;;4.00;;
27539;SDS011;15906;52.046;4.724;2023-06-14T02:50:11;10.68;;;3.67;;
27539;SDS011;15906;52.046;4.724;2023-06-14T02:52:37;7.85;;;3.90;;
27539;SDS011;15906;52.046;4.724;2023-06-14T02:55:03;10.50;;;3.60;;
27539;SDS011;15906;52.046;4.724;2023-06-14T02:57:29;7.63;;;3.78;;
27539;SDS011;15906;52.046;4.724;2023-06-14T02:59:55;11.07;;;3.65;;
27539;SDS011;15906;52.046;4.724;2023-06-14T03:02:20;6.60;;;4.13;;
27539;SDS011;15906;52.046;4.724;2023-06-14T03:04:46;4.85;;;3.55;;
27539;SDS011;15906;52.046;4.724;2023-06-14T03:07:11;5.40;;;3.47;;
27539;SDS011;15906;52.046;4.724;2023-06-14T03:09:38;10.88;;;3.85;;
27539;SDS011;15906;52.046;4.724;2023-06-14T03:12:04;10.15;;;3.97;;
27539;SDS011;15906;52.046;4.724;2023-06-14T03:14:34;9.52;;;3.95;;
27539;SDS011;15906;52.046;4.724;2023-06-14T03:17:00;7.70;;;4.10;;
27539;SDS011;15906;52.046;4.724;2023-06-14T03:19:26;7.47;;;4.07;;
27539;SDS011;15906;52.046;4.724;2023-06-14T03:21:52;10.35;;;4.22;;
27539;SDS011;15906;52.046;4.724;2023-06-14T03:24:18;7.63;;;3.83;;
27539;SDS011;15906;52.046;4.724;2023-06-14T03:26:45;7.57;;;4.15;;
27539;SDS011;15906;52.046;4.724;2023-06-14T03:29:11;9.05;;;4.80;;
27539;SDS011;15906;52.046;4.724;2023-06-14T03:31:40;11.68;;;4.18;;
27539;SDS011;15906;52.046;4.724;2023-06-14T03:34:23;8.82;;;3.67;;
27539;SDS011;15906;52.046;4.724;2023-06-14T03:36:48;14.73;;;4.95;;
27539;SDS011;15906;52.046;4.724;2023-06-14T03:39:14;14.98;;;4.10;;
27539;SDS011;15906;52.046;4.724;2023-06-14T03:41:40;10.05;;;3.85;;
27539;SDS011;15906;52.046;4.724;2023-06-14T03:44:05;8.48;;;4.25;;
27539;SDS011;15906;52.046;4.724;2023-06-14T03:46:31;4.70;;;3.38;;
27539;SDS011;15906;52.046;4.724;2023-06-14T03:48:56;8.98;;;4.18;;
27539;SDS011;15906;52.046;4.724;2023-06-14T03:51:22;7.93;;;4.03;;
27539;SDS011;15906;52.046;4.724;2023-06-14T03:53:47;9.70;;;3.70;;
27539;SDS011;15906;52.046;4.724;2023-06-14T03:56:13;7.53;;;3.90;;
27539;SDS011;15906;52.046;4.724;2023-06-14T03:58:38;7.93;;;3.92;;
27539;SDS011;15906;52.046;4.724;2023-06-14T04:01:04;8.32;;;4.07;;
27539;SDS011;15906;52.046;4.724;2023-06-14T04:03:32;8.98;;;3.67;;
27539;SDS011;15906;52.046;4.724;2023-06-14T04:05:58;11.25;;;3.40;;
27539;SDS011;15906;52.046;4.724;2023-06-14T04:08:24;7.28;;;3.70;;
27539;SDS011;15906;52.046;4.724;2023-06-14T04:10:50;7.90;;;3.97;;
27539;SDS011;15906;52.046;4.724;2023-06-14T04:13:16;11.45;;;3.65;;
27539;SDS011;15906;52.046;4.724;2023-06-14T04:15:42;5.85;;;3.60;;
27539;SDS011;15906;52.046;4.724;2023-06-14T04:18:08;10.07;;;4.05;;
27539;SDS011;15906;52.046;4.724;2023-06-14T04:20:34;6.93;;;4.03;;
27539;SDS011;15906;52.046;4.724;2023-06-14T04:23:10;12.68;;;4.70;;
27539;SDS011;15906;52.046;4.724;2023-06-14T04:25:43;9.00;;;3.78;;
27539;SDS011;15906;52.046;4.724;2023-06-14T04:28:12;9.00;;;4.47;;
27539;SDS011;15906;52.046;4.724;2023-06-14T04:30:39;8.82;;;4.20;;
27539;SDS011;15906;52.046;4.724;2023-06-14T04:33:05;7.53;;;3.90;;
27539;SDS011;15906;52.046;4.724;2023-06-14T04:35:31;7.25;;;3.35;;
27539;SDS011;15906;52.046;4.724;2023-06-14T04:37:58;7.50;;;3.53;;
27539;SDS011;15906;52.046;4.724;2023-06-14T04:40:24;14.73;;;4.18;;
27539;SDS011;15906;52.046;4.724;2023-06-14T04:42:50;9.52;;;4.35;;
27539;SDS011;15906;52.046;4.724;2023-06-14T04:45:16;9.85;;;3.70;;
27539;SDS011;15906;52.046;4.724;2023-06-14T04:47:42;8.10;;;3.80;;
27539;SDS011;15906;52.046;4.724;2023-06-14T04:50:09;5.85;;;3.92;;
27539;SDS011;15906;52.046;4.724;2023-06-14T04:52:35;14.73;;;4.05;;
27539;SDS011;15906;52.046;4.724;2023-06-14T04:55:02;6.20;;;3.53;;
27539;SDS011;15906;52.046;4.724;2023-06-14T04:57:28;10.27;;;4.20;;
27539;SDS011;15906;52.046;4.724;2023-06-14T04:59:53;12.45;;;3.83;;
27539;SDS011;15906;52.046;4.724;2023-06-14T05:02:20;5.55;;;3.92;;
27539;SDS011;15906;52.046;4.724;2023-06-14T05:04:50;7.55;;;3.55;;
27539;SDS011;15906;52.046;4.724;2023-06-14T05:07:16;7.47;;;3.90;;
27539;SDS011;15906;52.046;4.724;2023-06-14T05:09:42;9.95;;;4.05;;
27539;SDS011;15906;52.046;4.724;2023-06-14T05:12:07;7.60;;;3.90;;
27539;SDS011;15906;52.046;4.724;2023-06-14T05:14:33;9.77;;;4.35;;
27539;SDS011;15906;52.046;4.724;2023-06-14T05:16:59;11.30;;;3.55;;
27539;SDS011;15906;52.046;4.724;2023-06-14T05:19:25;7.95;;;3.58;;
27539;SDS011;15906;52.046;4.724;2023-06-14T05:21:51;10.15;;;4.32;;
27539;SDS011;15906;52.046;4.724;2023-06-14T05:24:17;11.70;;;3.95;;
27539;SDS011;15906;52.046;4.724;2023-06-14T05:26:43;7.30;;;3.72;;
27539;SDS011;15906;52.046;4.724;2023-06-14T05:29:08;6.50;;;3.88;;
27539;SDS011;15906;52.046;4.724;2023-06-14T05:31:34;9.65;;;4.60;;
27539;SDS011;15906;52.046;4.724;2023-06-14T05:34:00;6.88;;;3.92;;
27539;SDS011;15906;52.046;4.724;2023-06-14T05:36:25;9.10;;;3.80;;
27539;SDS011;15906;52.046;4.724;2023-06-14T05:38:52;11.23;;;5.18;;
27539;SDS011;15906;52.046;4.724;2023-06-14T05:41:28;11.60;;;4.43;;
27539;SDS011;15906;52.046;4.724;2023-06-14T05:43:54;6.30;;;3.55;;
27539;SDS011;15906;52.046;4.724;2023-06-14T05:46:21;6.03;;;3.83;;
27539;SDS011;15906;52.046;4.724;2023-06-14T05:48:53;5.70;;;3.97;;
27539;SDS011;15906;52.046;4.724;2023-06-14T05:51:20;10.50;;;4.68;;
27539;SDS011;15906;52.046;4.724;2023-06-14T05:53:46;5.80;;;4.13;;
27539;SDS011;15906;52.046;4.724;2023-06-14T05:56:12;5.65;;;3.45;;
27539;SDS011;15906;52.046;4.724;2023-06-14T05:58:45;7.85;;;3.90;;
27539;SDS011;15906;52.046;4.724;2023-06-14T06:01:11;11.25;;;4.13;;
27539;SDS011;15906;52.046;4.724;2023-06-14T06:03:38;7.28;;;4.00;;
27539;SDS011;15906;52.046;4.724;2023-06-14T06:06:03;8.57;;;4.00;;
27539;SDS011;15906;52.046;4.724;2023-06-14T06:08:29;7.63;;;4.22;;
27539;SDS011;15906;52.046;4.724;2023-06-14T06:10:56;12.07;;;4.72;;
27539;SDS011;15906;52.046;4.724;2023-06-14T06:13:22;9.10;;;4.18;;
27539;SDS011;15906;52.046;4.724;2023-06-14T06:15:47;9.88;;;4.40;;
27539;SDS011;15906;52.046;4.724;2023-06-14T06:18:13;9.48;;;4.30;;
27539;SDS011;15906;52.046;4.724;2023-06-14T06:20:38;10.45;;;4.40;;
27539;SDS011;15906;52.046;4.724;2023-06-14T06:23:04;8.70;;;4.22;;
27539;SDS011;15906;52.046;4.724;2023-06-14T06:25:30;8.55;;;4.65;;
27539;SDS011;15906;52.046;4.724;2023-06-14T06:27:56;15.85;;;4.05;;
27539;SDS011;15906;52.046;4.724;2023-06-14T06:30:22;10.48;;;4.50;;
27539;SDS011;15906;52.046;4.724;2023-06-14T06:32:48;11.05;;;3.97;;
27539;SDS011;15906;52.046;4.724;2023-06-14T06:35:14;8.68;;;4.15;;
27539;SDS011;15906;52.046;4.724;2023-06-14T06:37:41;11.98;;;3.97;;
27539;SDS011;15906;52.046;4.724;2023-06-14T06:40:07;8.02;;;4.07;;
27539;SDS011;15906;52.046;4.724;2023-06-14T06:42:33;13.75;;;4.15;;
27539;SDS011;15906;52.046;4.724;2023-06-14T06:44:59;7.97;;;4.10;;
27539;SDS011;15906;52.046;4.724;2023-06-14T06:47:25;6.97;;;3.95;;
27539;SDS011;15906;52.046;4.724;2023-06-14T06:49:50;8.30;;;4.30;;
27539;SDS011;15906;52.046;4.724;2023-06-14T06:52:16;7.13;;;4.10;;
27539;SDS011;15906;52.046;4.724;2023-06-14T06:54:42;8.77;;;4.47;;
27539;SDS011;15906;52.046;4.724;2023-06-14T06:57:07;6.47;;;3.80;;
27539;SDS011;15906;52.046;4.724;2023-06-14T06:59:33;9.05;;;4.10;;
27539;SDS011;15906;52.046;4.724;2023-06-14T07:01:59;7.50;;;4.65;;
27539;SDS011;15906;52.046;4.724;2023-06-14T07:04:25;6.57;;;3.75;;
27539;SDS011;15906;52.046;4.724;2023-06-14T07:06:50;4.57;;;3.53;;
27539;SDS011;15906;52.046;4.724;2023-06-14T07:09:16;7.18;;;3.65;;
27539;SDS011;15906;52.046;4.724;2023-06-14T07:11:45;7.22;;;3.70;;
27539;SDS011;15906;52.046;4.724;2023-06-14T07:14:11;11.10;;;3.38;;
27539;SDS011;15906;52.046;4.724;2023-06-14T07:16:37;12.18;;;3.45;;
27539;SDS011;15906;52.046;4.724;2023-06-14T07:19:03;4.85;;;3.33;;
27539;SDS011;15906;52.046;4.724;2023-06-14T07:21:28;6.30;;;3.95;;
27539;SDS011;15906;52.046;4.724;2023-06-14T07:23:54;4.68;;;3.25;;
27539;SDS011;15906;52.046;4.724;2023-06-14T07:26:20;8.00;;;4.10;;
27539;SDS011;15906;52.046;4.724;2023-06-14T07:28:46;8.05;;;4.30;;
27539;SDS011;15906;52.046;4.724;2023-06-14T07:31:13;7.85;;;4.10;;
27539;SDS011;15906;52.046;4.724;2023-06-14T07:33:44;8.32;;;3.95;;
27539;SDS011;15906;52.046;4.724;2023-06-14T07:36:10;7.10;;;3.78;;
27539;SDS011;15906;52.046;4.724;2023-06-14T07:38:35;13.30;;;4.30;;
27539;SDS011;15906;52.046;4.724;2023-06-14T07:41:01;5.40;;;3.80;;
27539;SDS011;15906;52.046;4.724;2023-06-14T07:43:27;6.13;;;3.75;;
27539;SDS011;15906;52.046;4.724;2023-06-14T07:45:52;9.30;;;4.40;;
27539;SDS011;15906;52.046;4.724;2023-06-14T07:48:18;9.80;;;4.03;;
27539;SDS011;15906;52.046;4.724;2023-06-14T07:50:44;9.75;;;4.13;;
27539;SDS011;15906;52.046;4.724;2023-06-14T07:53:09;6.63;;;3.83;;
27539;SDS011;15906;52.046;4.724;2023-06-14T07:55:35;9.25;;;4.65;;
27539;SDS011;15906;52.046;4.724;2023-06-14T07:58:02;8.10;;;4.20;;
27539;SDS011;15906;52.046;4.724;2023-06-14T08:00:28;9.65;;;3.90;;
27539;SDS011;15906;52.046;4.724;2023-06-14T08:02:54;10.48;;;4.05;;
27539;SDS011;15906;52.046;4.724;2023-06-14T08:05:23;14.38;;;3.80;;
27539;SDS011;15906;52.046;4.724;2023-06-14T08:07:50;5.20;;;3.85;;
27539;SDS011;15906;52.046;4.724;2023-06-14T08:10:16;6.57;;;3.85;;
27539;SDS011;15906;52.046;4.724;2023-06-14T08:12:42;8.13;;;3.92;;
27539;SDS011;15906;52.046;4.724;2023-06-14T08:15:08;10.57;;;4.07;;
27539;SDS011;15906;52.046;4.724;2023-06-14T08:17:34;8.68;;;4.13;;
27539;SDS011;15906;52.046;4.724;2023-06-14T08:20:00;11.05;;;4.20;;
27539;SDS011;15906;52.046;4.724;2023-06-14T08:22:25;7.63;;;3.75;;
27539;SDS011;15906;52.046;4.724;2023-06-14T08:24:52;7.22;;;3.40;;
27539;SDS011;15906;52.046;4.724;2023-06-14T08:27:19;12.43;;;3.60;;
27539;SDS011;15906;52.046;4.724;2023-06-14T08:29:45;6.00;;;3.97;;
27539;SDS011;15906;52.046;4.724;2023-06-14T08:32:11;6.65;;;3.50;;
27539;SDS011;15906;52.046;4.724;2023-06-14T08:34:37;6.75;;;3.60;;
27539;SDS011;15906;52.046;4.724;2023-06-14T08:37:03;8.50;;;3.90;;
27539;SDS011;15906;52.046;4.724;2023-06-14T08:39:29;9.60;;;3.60;;
27539;SDS011;15906;52.046;4.724;2023-06-14T08:41:54;6.13;;;3.58;;
27539;SDS011;15906;52.046;4.724;2023-06-14T08:44:21;10.07;;;4.13;;
27539;SDS011;15906;52.046;4.724;2023-06-14T08:46:47;6.82;;;3.33;;
27539;SDS011;15906;52.046;4.724;2023-06-14T08:49:13;6.95;;;3.70;;
27539;SDS011;15906;52.046;4.724;2023-06-14T08:51:42;4.40;;;3.60;;
27539;SDS011;15906;52.046;4.724;2023-06-14T08:54:08;6.43;;;3.53;;
27539;SDS011;15906;52.046;4.724;2023-06-14T08:56:37;6.70;;;3.63;;
27539;SDS011;15906;52.046;4.724;2023-06-14T08:59:03;13.27;;;4.13;;
27539;SDS011;15906;52.046;4.724;2023-06-14T09:01:32;8.73;;;4.13;;
27539;SDS011;15906;52.046;4.724;2023-06-14T09:03:59;10.15;;;3.95;;
27539;SDS011;15906;52.046;4.724;2023-06-14T09:06:25;4.93;;;3.35;;
27539;SDS011;15906;52.046;4.724;2023-06-14T09:08:53;6.78;;;3.08;;
27539;SDS011;15906;52.046;4.724;2023-06-14T09:11:22;5.70;;;3.22;;
27539;SDS011;15906;52.046;4.724;2023-06-14T09:13:48;5.97;;;3.28;;
27539;SDS011;15906;52.046;4.724;2023-06-14T09:16:14;4.07;;;3.25;;
27539;SDS011;15906;52.046;4.724;2023-06-14T09:18:42;7.05;;;3.10;;
27539;SDS011;15906;52.046;4.724;2023-06-14T09:21:15;8.75;;;3.83;;
27539;SDS011;15906;52.046;4.724;2023-06-14T09:23:42;6.28;;;3.30;;
27539;SDS011;15906;52.046;4.724;2023-06-14T09:26:10;11.00;;;4.15;;
27539;SDS011;15906;52.046;4.724;2023-06-14T09:28:45;6.53;;;3.67;;
27539;SDS011;15906;52.046;4.724;2023-06-14T09:31:12;5.68;;;3.20;;
27539;SDS011;15906;52.046;4.724;2023-06-14T09:33:41;5.88;;;2.97;;
27539;SDS011;15906;52.046;4.724;2023-06-14T09:36:13;6.30;;;3.30;;
27539;SDS011;15906;52.046;4.724;2023-06-14T09:38:55;6.28;;;3.00;;
27539;SDS011;15906;52.046;4.724;2023-06-14T09:41:32;9.82;;;3.20;;
27539;SDS011;15906;52.046;4.724;2023-06-14T09:44:01;6.72;;;2.92;;
27539;SDS011;15906;52.046;4.724;2023-06-14T09:46:32;5.13;;;3.13;;
27539;SDS011;15906;52.046;4.724;2023-06-14T09:48:59;5.82;;;2.72;;
27539;SDS011;15906;52.046;4.724;2023-06-14T09:51:26;6.00;;;2.83;;
27539;SDS011;15906;52.046;4.724;2023-06-14T09:53:52;7.28;;;2.88;;
27539;SDS011;15906;52.046;4.724;2023-06-14T09:56:28;6.40;;;3.35;;
27539;SDS011;15906;52.046;4.724;2023-06-14T09:58:58;4.65;;;2.50;;
27539;SDS011;15906;52.046;4.724;2023-06-14T10:01:25;4.97;;;2.53;;
27539;SDS011;15906;52.046;4.724;2023-06-14T10:04:06;5.47;;;2.70;;
27539;SDS011;15906;52.046;4.724;2023-06-14T10:06:36;8.60;;;2.90;;
27539;SDS011;15906;52.046;4.724;2023-06-14T10:09:03;4.50;;;2.53;;
27539;SDS011;15906;52.046;4.724;2023-06-14T10:11:32;3.33;;;2.67;;
27539;SDS011;15906;52.046;4.724;2023-06-14T10:14:00;3.75;;;2.22;;
27539;SDS011;15906;52.046;4.724;2023-06-14T10:16:31;4.38;;;2.40;;
27539;SDS011;15906;52.046;4.724;2023-06-14T10:19:10;3.55;;;2.28;;
27539;SDS011;15906;52.046;4.724;2023-06-14T10:24:32;7.80;;;2.35;;
27539;SDS011;15906;52.046;4.724;2023-06-14T10:27:00;6.22;;;2.08;;
27539;SDS011;15906;52.046;4.724;2023-06-14T10:29:26;4.82;;;2.03;;
27539;SDS011;15906;52.046;4.724;2023-06-14T10:31:57;3.17;;;2.13;;
27539;SDS011;15906;52.046;4.724;2023-06-14T10:37:06;4.65;;;2.25;;
27539;SDS011;15906;52.046;4.724;2023-06-14T10:39:40;4.32;;;2.40;;
27539;SDS011;15906;52.046;4.724;2023-06-14T10:42:07;4.38;;;1.95;;
27539;SDS011;15906;52.046;4.724;2023-06-14T10:44:37;4.18;;;1.85;;
27539;SDS011;15906;52.046;4.724;2023-06-14T10:47:08;6.18;;;2.20;;
27539;SDS011;15906;52.046;4.724;2023-06-14T10:49:43;3.03;;;1.90;;
27539;SDS011;15906;52.046;4.724;2023-06-14T10:52:32;3.17;;;1.90;;
27539;SDS011;15906;52.046;4.724;2023-06-14T10:57:53;4.88;;;2.25;;
27539;SDS011;15906;52.046;4.724;2023-06-14T11:00:24;3.83;;;2.28;;
27539;SDS011;15906;52.046;4.724;2023-06-14T11:05:55;4.30;;;2.00;;
27539;SDS011;15906;52.046;4.724;2023-06-14T11:08:27;5.18;;;2.00;;
27539;SDS011;15906;52.046;4.724;2023-06-14T11:11:31;2.63;;;1.60;;
27539;SDS011;15906;52.046;4.724;2023-06-14T11:14:00;2.70;;;1.77;;
27539;SDS011;15906;52.046;4.724;2023-06-14T11:16:28;4.70;;;1.88;;
27539;SDS011;15906;52.046;4.724;2023-06-14T11:18:54;2.30;;;1.55;;
27539;SDS011;15906;52.046;4.724;2023-06-14T11:21:20;3.35;;;1.75;;
27539;SDS011;15906;52.046;4.724;2023-06-14T11:23:50;2.65;;;1.90;;
27539;SDS011;15906;52.046;4.724;2023-06-14T11:26:23;2.08;;;1.80;;
27539;SDS011;15906;52.046;4.724;2023-06-14T11:28:54;2.20;;;1.77;;
27539;SDS011;15906;52.046;4.724;2023-06-14T11:31:23;8.98;;;2.40;;
27539;SDS011;15906;52.046;4.724;2023-06-14T11:33:56;5.65;;;1.60;;
27539;SDS011;15906;52.046;4.724;2023-06-14T11:36:23;3.30;;;1.90;;
27539;SDS011;15906;52.046;4.724;2023-06-14T11:38:57;7.63;;;2.03;;
27539;SDS011;15906;52.046;4.724;2023-06-14T11:41:42;4.53;;;1.80;;
27539;SDS011;15906;52.046;4.724;2023-06-14T11:44:08;2.83;;;1.70;;
27539;SDS011;15906;52.046;4.724;2023-06-14T11:46:34;3.55;;;2.05;;
27539;SDS011;15906;52.046;4.724;2023-06-14T11:49:01;2.83;;;1.95;;
27539;SDS011;15906;52.046;4.724;2023-06-14T11:51:32;3.55;;;1.85;;
27539;SDS011;15906;52.046;4.724;2023-06-14T11:53:58;2.70;;;1.65;;
27539;SDS011;15906;52.046;4.724;2023-06-14T11:56:24;7.53;;;1.83;;
27539;SDS011;15906;52.046;4.724;2023-06-14T11:58:52;4.65;;;1.70;;
27539;SDS011;15906;52.046;4.724;2023-06-14T12:01:19;2.95;;;1.70;;
27539;SDS011;15906;52.046;4.724;2023-06-14T12:03:51;2.45;;;1.80;;
27539;SDS011;15906;52.046;4.724;2023-06-14T12:06:25;2.85;;;1.85;;
27539;SDS011;15906;52.046;4.724;2023-06-14T12:08:57;5.35;;;1.80;;
27539;SDS011;15906;52.046;4.724;2023-06-14T12:11:23;4.05;;;1.88;;
27539;SDS011;15906;52.046;4.724;2023-06-14T12:13:53;7.50;;;2.05;;
27539;SDS011;15906;52.046;4.724;2023-06-14T12:16:18;4.45;;;2.17;;
27539;SDS011;15906;52.046;4.724;2023-06-14T12:18:44;3.75;;;1.85;;
27539;SDS011;15906;52.046;4.724;2023-06-14T12:21:10;2.85;;;1.85;;
27539;SDS011;15906;52.046;4.724;2023-06-14T12:26:08;4.72;;;2.10;;
27539;SDS011;15906;52.046;4.724;2023-06-14T12:28:34;6.95;;;1.90;;
27539;SDS011;15906;52.046;4.724;2023-06-14T12:30:59;5.10;;;2.00;;
27539;SDS011;15906;52.046;4.724;2023-06-14T12:33:25;6.97;;;2.05;;
27539;SDS011;15906;52.046;4.724;2023-06-14T12:35:53;3.25;;;1.70;;
27539;SDS011;15906;52.046;4.724;2023-06-14T12:38:20;3.25;;;1.77;;
27539;SDS011;15906;52.046;4.724;2023-06-14T12:40:46;2.55;;;1.67;;
27539;SDS011;15906;52.046;4.724;2023-06-14T12:43:11;8.23;;;1.77;;
27539;SDS011;15906;52.046;4.724;2023-06-14T12:45:37;2.78;;;1.98;;
27539;SDS011;15906;52.046;4.724;2023-06-14T12:48:03;3.67;;;1.80;;
27539;SDS011;15906;52.046;4.724;2023-06-14T12:50:28;5.00;;;1.67;;
27539;SDS011;15906;52.046;4.724;2023-06-14T12:52:54;3.63;;;1.83;;
27539;SDS011;15906;52.046;4.724;2023-06-14T13:09:10;12.48;;;2.00;;
27539;SDS011;15906;52.046;4.724;2023-06-14T13:11:58;3.95;;;2.10;;
27539;SDS011;15906;52.046;4.724;2023-06-14T13:14:34;3.67;;;1.88;;
27539;SDS011;15906;52.046;4.724;2023-06-14T13:16:59;5.57;;;1.75;;
27539;SDS011;15906;52.046;4.724;2023-06-14T13:19:25;5.03;;;1.77;;
27539;SDS011;15906;52.046;4.724;2023-06-14T13:21:50;5.95;;;1.85;;
27539;SDS011;15906;52.046;4.724;2023-06-14T13:24:16;5.80;;;2.30;;
27539;SDS011;15906;52.046;4.724;2023-06-14T13:26:42;3.63;;;1.98;;
27539;SDS011;15906;52.046;4.724;2023-06-14T13:29:07;3.92;;;1.73;;
27539;SDS011;15906;52.046;4.724;2023-06-14T13:31:33;3.92;;;1.65;;
27539;SDS011;15906;52.046;4.724;2023-06-14T13:33:58;5.80;;;2.05;;
27539;SDS011;15906;52.046;4.724;2023-06-14T13:36:24;4.07;;;2.03;;
27539;SDS011;15906;52.046;4.724;2023-06-14T13:38:50;7.60;;;2.50;;
27539;SDS011;15906;52.046;4.724;2023-06-14T13:41:17;6.10;;;2.00;;
27539;SDS011;15906;52.046;4.724;2023-06-14T13:43:43;4.97;;;1.90;;
27539;SDS011;15906;52.046;4.724;2023-06-14T13:46:08;8.68;;;1.95;;
27539;SDS011;15906;52.046;4.724;2023-06-14T13:48:34;3.53;;;1.85;;
27539;SDS011;15906;52.046;4.724;2023-06-14T13:50:59;2.58;;;1.90;;
27539;SDS011;15906;52.046;4.724;2023-06-14T13:53:25;3.75;;;1.92;;
27539;SDS011;15906;52.046;4.724;2023-06-14T13:55:51;3.30;;;1.55;;
27539;SDS011;15906;52.046;4.724;2023-06-14T13:58:17;1.95;;;1.75;;
27539;SDS011;15906;52.046;4.724;2023-06-14T14:00:44;3.47;;;1.90;;
27539;SDS011;15906;52.046;4.724;2023-06-14T14:03:09;10.00;;;1.95;;
27539;SDS011;15906;52.046;4.724;2023-06-14T14:05:36;5.57;;;2.25;;
27539;SDS011;15906;52.046;4.724;2023-06-14T14:08:01;4.63;;;2.10;;
27539;SDS011;15906;52.046;4.724;2023-06-14T14:10:27;2.47;;;1.77;;
27539;SDS011;15906;52.046;4.724;2023-06-14T14:12:53;2.80;;;2.08;;
27539;SDS011;15906;52.046;4.724;2023-06-14T14:15:19;8.38;;;1.90;;
27539;SDS011;15906;52.046;4.724;2023-06-14T14:17:45;2.10;;;1.80;;
27539;SDS011;15906;52.046;4.724;2023-06-14T14:20:12;6.90;;;1.98;;
27539;SDS011;15906;52.046;4.724;2023-06-14T14:22:40;8.80;;;2.05;;
27539;SDS011;15906;52.046;4.724;2023-06-14T14:25:09;6.55;;;2.08;;
27539;SDS011;15906;52.046;4.724;2023-06-14T14:27:35;4.05;;;2.20;;
27539;SDS011;15906;52.046;4.724;2023-06-14T14:30:01;5.22;;;2.00;;
27539;SDS011;15906;52.046;4.724;2023-06-14T14:32:28;2.67;;;2.00;;
27539;SDS011;15906;52.046;4.724;2023-06-14T14:34:53;5.00;;;2.20;;
27539;SDS011;15906;52.046;4.724;2023-06-14T14:37:19;3.80;;;2.20;;
27539;SDS011;15906;52.046;4.724;2023-06-14T14:39:45;4.97;;;1.95;;
27539;SDS011;15906;52.046;4.724;2023-06-14T14:42:11;2.70;;;2.00;;
27539;SDS011;15906;52.046;4.724;2023-06-14T14:44:37;6.35;;;2.05;;
27539;SDS011;15906;52.046;4.724;2023-06-14T14:47:03;4.60;;;1.90;;
27539;SDS011;15906;52.046;4.724;2023-06-14T14:49:30;8.45;;;1.90;;
27539;SDS011;15906;52.046;4.724;2023-06-14T14:51:56;5.40;;;2.47;;
27539;SDS011;15906;52.046;4.724;2023-06-14T14:54:22;4.38;;;2.08;;
27539;SDS011;15906;52.046;4.724;2023-06-14T14:56:48;9.43;;;2.38;;
27539;SDS011;15906;52.046;4.724;2023-06-14T14:59:14;2.67;;;1.83;;
27539;SDS011;15906;52.046;4.724;2023-06-14T15:01:39;8.88;;;2.13;;
27539;SDS011;15906;52.046;4.724;2023-06-14T15:04:05;4.10;;;1.77;;
27539;SDS011;15906;52.046;4.724;2023-06-14T15:06:30;8.13;;;1.77;;
27539;SDS011;15906;52.046;4.724;2023-06-14T15:09:00;9.50;;;1.90;;
27539;SDS011;15906;52.046;4.724;2023-06-14T15:11:26;4.15;;;1.83;;
27539;SDS011;15906;52.046;4.724;2023-06-14T15:13:52;3.17;;;1.70;;
27539;SDS011;15906;52.046;4.724;2023-06-14T15:16:17;5.35;;;1.73;;
27539;SDS011;15906;52.046;4.724;2023-06-14T15:18:43;2.78;;;1.73;;
27539;SDS011;15906;52.046;4.724;2023-06-14T15:21:08;5.05;;;1.80;;